sensor_id;sensor_type;location;lat;lon;timestamp;P1;durP1;ratioP1;P2;durP2;ratioP2
17648;SDS011;8943;51.110;-4.158;2023-06-01T00:02:09;5.33;;;3.43;;
17648;SDS011;8943;51.110;-4.158;2023-06-01T00:04:39;8.40;;;3.80;;
17648;SDS011;8943;51.110;-4.158;2023-06-01T00:07:08;5.97;;;3.60;;
17648;SDS011;8943;51.110;-4.158;2023-06-01T00:09:37;7.60;;;3.70;;
17648;SDS011;8943;51.110;-4.158;2023-06-01T00:12:07;5.53;;;3.70;;
17648;SDS011;8943;51.110;-4.158;2023-06-01T00:14:36;5.37;;;3.77;;
17648;SDS011;8943;51.110;-4.158;2023-06-01T00:17:08;7.23;;;4.00;;
17648;SDS011;8943;51.110;-4.158;2023-06-01T00:19:37;4.63;;;3.47;;
17648;SDS011;8943;51.110;-4.158;2023-06-01T00:22:06;4.77;;;3.53;;
17648;SDS011;8943;51.110;-4.158;2023-06-01T00:24:35;7.63;;;4.10;;
17648;SDS011;8943;51.110;-4.158;2023-06-01T00:27:04;7.43;;;4.47;;
17648;SDS011;8943;51.110;-4.158;2023-06-01T00:29:34;4.67;;;3.47;;
17648;SDS011;8943;51.110;-4.158;2023-06-01T00:32:04;3.90;;;3.27;;
17648;SDS011;8943;51.110;-4.158;2023-06-01T00:34:36;5.93;;;3.60;;
17648;SDS011;8943;51.110;-4.158;2023-06-01T00:37:04;8.13;;;4.40;;
17648;SDS011;8943;51.110;-4.158;2023-06-01T00:39:33;4.60;;;3.70;;
17648;SDS011;8943;51.110;-4.158;2023-06-01T00:42:01;5.00;;;3.83;;
17648;SDS011;8943;51.110;-4.158;2023-06-01T00:44:30;7.03;;;4.10;;
17648;SDS011;8943;51.110;-4.158;2023-06-01T00:46:59;5.97;;;4.30;;
17648;SDS011;8943;51.110;-4.158;2023-06-01T00:49:28;6.37;;;4.03;;
17648;SDS011;8943;51.110;-4.158;2023-06-01T00:51:58;9.53;;;4.50;;
17648;SDS011;8943;51.110;-4.158;2023-06-01T00:54:26;9.27;;;4.23;;
17648;SDS011;8943;51.110;-4.158;2023-06-01T00:56:56;4.33;;;3.63;;
17648;SDS011;8943;51.110;-4.158;2023-06-01T00:59:24;5.73;;;3.90;;
17648;SDS011;8943;51.110;-4.158;2023-06-01T01:01:53;5.57;;;4.23;;
17648;SDS011;8943;51.110;-4.158;2023-06-01T01:04:21;6.63;;;3.83;;
17648;SDS011;8943;51.110;-4.158;2023-06-01T01:06:55;7.57;;;4.50;;
17648;SDS011;8943;51.110;-4.158;2023-06-01T01:09:32;7.17;;;3.97;;
17648;SDS011;8943;51.110;-4.158;2023-06-01T01:12:24;6.07;;;4.70;;
17648;SDS011;8943;51.110;-4.158;2023-06-01T01:15:01;8.90;;;4.63;;
17648;SDS011;8943;51.110;-4.158;2023-06-01T01:17:36;5.13;;;4.00;;
17648;SDS011;8943;51.110;-4.158;2023-06-01T01:20:11;6.60;;;4.37;;
17648;SDS011;8943;51.110;-4.158;2023-06-01T01:22:54;7.30;;;4.50;;
17648;SDS011;8943;51.110;-4.158;2023-06-01T01:25:52;5.30;;;4.07;;
17648;SDS011;8943;51.110;-4.158;2023-06-01T01:28:42;5.57;;;4.53;;
17648;SDS011;8943;51.110;-4.158;2023-06-01T01:31:15;8.37;;;4.60;;
17648;SDS011;8943;51.110;-4.158;2023-06-01T01:33:46;5.83;;;4.23;;
17648;SDS011;8943;51.110;-4.158;2023-06-01T01:36:16;6.87;;;4.67;;
17648;SDS011;8943;51.110;-4.158;2023-06-01T01:38:45;5.53;;;4.67;;
17648;SDS011;8943;51.110;-4.158;2023-06-01T01:41:15;6.80;;;4.63;;
17648;SDS011;8943;51.110;-4.158;2023-06-01T01:43:47;6.17;;;4.87;;
17648;SDS011;8943;51.110;-4.158;2023-06-01T01:46:23;5.53;;;4.20;;
17648;SDS011;8943;51.110;-4.158;2023-06-01T01:49:00;6.57;;;4.60;;
17648;SDS011;8943;51.110;-4.158;2023-06-01T01:51:40;7.17;;;5.03;;
17648;SDS011;8943;51.110;-4.158;2023-06-01T01:54:17;7.10;;;4.83;;
17648;SDS011;8943;51.110;-4.158;2023-06-01T01:56:47;7.40;;;4.77;;
17648;SDS011;8943;51.110;-4.158;2023-06-01T01:59:19;9.00;;;4.60;;
17648;SDS011;8943;51.110;-4.158;2023-06-01T02:01:48;6.27;;;4.47;;
17648;SDS011;8943;51.110;-4.158;2023-06-01T02:04:17;7.17;;;5.10;;
17648;SDS011;8943;51.110;-4.158;2023-06-01T02:06:45;9.03;;;4.80;;
17648;SDS011;8943;51.110;-4.158;2023-06-01T02:09:17;6.60;;;4.30;;
17648;SDS011;8943;51.110;-4.158;2023-06-01T02:11:46;8.47;;;4.43;;
17648;SDS011;8943;51.110;-4.158;2023-06-01T02:14:16;10.13;;;6.00;;
17648;SDS011;8943;51.110;-4.158;2023-06-01T02:16:47;7.00;;;5.33;;
17648;SDS011;8943;51.110;-4.158;2023-06-01T02:19:17;8.30;;;5.70;;
17648;SDS011;8943;51.110;-4.158;2023-06-01T02:21:46;7.97;;;4.97;;
17648;SDS011;8943;51.110;-4.158;2023-06-01T02:24:15;7.50;;;5.10;;
17648;SDS011;8943;51.110;-4.158;2023-06-01T02:26:45;9.13;;;5.63;;
17648;SDS011;8943;51.110;-4.158;2023-06-01T02:29:16;8.10;;;5.03;;
17648;SDS011;8943;51.110;-4.158;2023-06-01T02:31:47;9.53;;;5.53;;
17648;SDS011;8943;51.110;-4.158;2023-06-01T02:34:16;6.53;;;5.47;;
17648;SDS011;8943;51.110;-4.158;2023-06-01T02:36:45;7.97;;;5.47;;
17648;SDS011;8943;51.110;-4.158;2023-06-01T02:39:15;10.83;;;5.30;;
17648;SDS011;8943;51.110;-4.158;2023-06-01T02:41:44;8.37;;;5.17;;
17648;SDS011;8943;51.110;-4.158;2023-06-01T02:44:13;8.30;;;5.57;;
17648;SDS011;8943;51.110;-4.158;2023-06-01T02:46:42;6.97;;;5.03;;
17648;SDS011;8943;51.110;-4.158;2023-06-01T02:49:15;9.30;;;5.40;;
17648;SDS011;8943;51.110;-4.158;2023-06-01T02:51:45;8.10;;;5.70;;
17648;SDS011;8943;51.110;-4.158;2023-06-01T02:54:14;9.13;;;5.30;;
17648;SDS011;8943;51.110;-4.158;2023-06-01T02:56:45;8.93;;;5.17;;
17648;SDS011;8943;51.110;-4.158;2023-06-01T02:59:15;7.53;;;5.23;;
17648;SDS011;8943;51.110;-4.158;2023-06-01T03:01:44;7.10;;;4.77;;
17648;SDS011;8943;51.110;-4.158;2023-06-01T03:04:14;6.07;;;4.37;;
17648;SDS011;8943;51.110;-4.158;2023-06-01T03:06:44;5.23;;;4.73;;
17648;SDS011;8943;51.110;-4.158;2023-06-01T03:09:13;7.43;;;5.60;;
17648;SDS011;8943;51.110;-4.158;2023-06-01T03:11:42;6.60;;;4.90;;
17648;SDS011;8943;51.110;-4.158;2023-06-01T03:14:13;6.33;;;5.03;;
17648;SDS011;8943;51.110;-4.158;2023-06-01T03:16:42;7.10;;;5.23;;
17648;SDS011;8943;51.110;-4.158;2023-06-01T03:19:11;6.50;;;5.00;;
17648;SDS011;8943;51.110;-4.158;2023-06-01T03:21:42;7.23;;;5.50;;
17648;SDS011;8943;51.110;-4.158;2023-06-01T03:24:13;8.20;;;5.40;;
17648;SDS011;8943;51.110;-4.158;2023-06-01T03:26:44;7.93;;;5.50;;
17648;SDS011;8943;51.110;-4.158;2023-06-01T03:29:13;8.57;;;5.93;;
17648;SDS011;8943;51.110;-4.158;2023-06-01T03:31:42;6.90;;;5.57;;
17648;SDS011;8943;51.110;-4.158;2023-06-01T03:34:12;6.60;;;5.27;;
17648;SDS011;8943;51.110;-4.158;2023-06-01T03:36:43;7.70;;;5.57;;
17648;SDS011;8943;51.110;-4.158;2023-06-01T03:39:14;7.77;;;5.50;;
17648;SDS011;8943;51.110;-4.158;2023-06-01T03:41:43;6.77;;;5.37;;
17648;SDS011;8943;51.110;-4.158;2023-06-01T03:44:12;6.13;;;5.23;;
17648;SDS011;8943;51.110;-4.158;2023-06-01T03:46:41;7.00;;;5.57;;
17648;SDS011;8943;51.110;-4.158;2023-06-01T03:49:10;7.77;;;4.87;;
17648;SDS011;8943;51.110;-4.158;2023-06-01T03:51:38;6.63;;;5.17;;
17648;SDS011;8943;51.110;-4.158;2023-06-01T03:54:08;8.77;;;5.20;;
17648;SDS011;8943;51.110;-4.158;2023-06-01T03:56:37;8.53;;;5.17;;
17648;SDS011;8943;51.110;-4.158;2023-06-01T03:59:06;7.77;;;5.17;;
17648;SDS011;8943;51.110;-4.158;2023-06-01T04:01:37;7.47;;;4.90;;
17648;SDS011;8943;51.110;-4.158;2023-06-01T04:04:09;7.43;;;5.03;;
17648;SDS011;8943;51.110;-4.158;2023-06-01T04:07:09;7.67;;;5.00;;
17648;SDS011;8943;51.110;-4.158;2023-06-01T05:37:31;6.03;;;4.53;;
17648;SDS011;8943;51.110;-4.158;2023-06-01T06:18:14;8.87;;;5.20;;
17648;SDS011;8943;51.110;-4.158;2023-06-01T06:21:11;6.53;;;5.20;;
17648;SDS011;8943;51.110;-4.158;2023-06-01T06:29:02;6.00;;;5.40;;
17648;SDS011;8943;51.110;-4.158;2023-06-01T06:58:36;7.80;;;4.67;;
17648;SDS011;8943;51.110;-4.158;2023-06-01T07:01:06;6.10;;;4.57;;
17648;SDS011;8943;51.110;-4.158;2023-06-01T07:03:35;6.63;;;3.90;;
17648;SDS011;8943;51.110;-4.158;2023-06-01T07:06:09;5.60;;;3.90;;
17648;SDS011;8943;51.110;-4.158;2023-06-01T07:08:37;8.53;;;4.40;;
17648;SDS011;8943;51.110;-4.158;2023-06-01T07:11:08;6.27;;;3.67;;
17648;SDS011;8943;51.110;-4.158;2023-06-01T07:13:36;8.17;;;4.27;;
17648;SDS011;8943;51.110;-4.158;2023-06-01T07:16:05;4.30;;;3.30;;
17648;SDS011;8943;51.110;-4.158;2023-06-01T07:18:34;4.37;;;3.63;;
17648;SDS011;8943;51.110;-4.158;2023-06-01T07:21:06;6.37;;;3.90;;
17648;SDS011;8943;51.110;-4.158;2023-06-01T07:23:35;4.77;;;3.43;;
17648;SDS011;8943;51.110;-4.158;2023-06-01T07:26:04;6.93;;;3.33;;
17648;SDS011;8943;51.110;-4.158;2023-06-01T07:28:38;5.27;;;4.20;;
17648;SDS011;8943;51.110;-4.158;2023-06-01T07:31:22;6.20;;;3.33;;
17648;SDS011;8943;51.110;-4.158;2023-06-01T07:33:55;4.70;;;3.83;;
17648;SDS011;8943;51.110;-4.158;2023-06-01T07:36:25;3.73;;;3.33;;
17648;SDS011;8943;51.110;-4.158;2023-06-01T07:39:04;4.47;;;3.03;;
17648;SDS011;8943;51.110;-4.158;2023-06-01T07:41:45;5.53;;;3.10;;
17648;SDS011;8943;51.110;-4.158;2023-06-01T07:44:17;4.47;;;3.27;;
17648;SDS011;8943;51.110;-4.158;2023-06-01T07:46:47;4.23;;;2.90;;
17648;SDS011;8943;51.110;-4.158;2023-06-01T07:49:20;3.93;;;2.87;;
17648;SDS011;8943;51.110;-4.158;2023-06-01T07:52:05;3.77;;;2.93;;
17648;SDS011;8943;51.110;-4.158;2023-06-01T07:54:34;4.07;;;2.77;;
17648;SDS011;8943;51.110;-4.158;2023-06-01T07:57:04;3.93;;;2.80;;
17648;SDS011;8943;51.110;-4.158;2023-06-01T07:59:40;4.00;;;2.63;;
17648;SDS011;8943;51.110;-4.158;2023-06-01T08:02:14;4.97;;;2.53;;
17648;SDS011;8943;51.110;-4.158;2023-06-01T08:04:53;4.53;;;2.67;;
17648;SDS011;8943;51.110;-4.158;2023-06-01T08:07:26;3.40;;;2.80;;
17648;SDS011;8943;51.110;-4.158;2023-06-01T08:09:56;2.80;;;2.60;;
17648;SDS011;8943;51.110;-4.158;2023-06-01T08:12:29;3.07;;;2.50;;
17648;SDS011;8943;51.110;-4.158;2023-06-01T08:14:59;7.13;;;2.70;;
17648;SDS011;8943;51.110;-4.158;2023-06-01T08:17:28;6.30;;;2.90;;
17648;SDS011;8943;51.110;-4.158;2023-06-01T08:20:00;3.23;;;2.60;;
17648;SDS011;8943;51.110;-4.158;2023-06-01T08:22:33;4.97;;;3.10;;
17648;SDS011;8943;51.110;-4.158;2023-06-01T08:25:02;3.93;;;2.87;;
17648;SDS011;8943;51.110;-4.158;2023-06-01T08:27:32;3.90;;;2.33;;
17648;SDS011;8943;51.110;-4.158;2023-06-01T08:32:53;3.07;;;2.50;;
17648;SDS011;8943;51.110;-4.158;2023-06-01T08:35:23;4.13;;;2.97;;
17648;SDS011;8943;51.110;-4.158;2023-06-01T08:38:00;4.00;;;3.00;;
17648;SDS011;8943;51.110;-4.158;2023-06-01T08:40:30;3.73;;;2.40;;
17648;SDS011;8943;51.110;-4.158;2023-06-01T08:42:59;5.17;;;3.10;;
17648;SDS011;8943;51.110;-4.158;2023-06-01T08:45:44;3.00;;;2.60;;
17648;SDS011;8943;51.110;-4.158;2023-06-01T08:48:15;3.97;;;2.23;;
17648;SDS011;8943;51.110;-4.158;2023-06-01T08:50:49;3.73;;;3.13;;
17648;SDS011;8943;51.110;-4.158;2023-06-01T08:53:20;2.97;;;2.60;;
17648;SDS011;8943;51.110;-4.158;2023-06-01T08:55:50;4.47;;;2.90;;
17648;SDS011;8943;51.110;-4.158;2023-06-01T08:58:20;4.80;;;2.90;;
17648;SDS011;8943;51.110;-4.158;2023-06-01T09:00:51;4.23;;;3.33;;
17648;SDS011;8943;51.110;-4.158;2023-06-01T09:03:21;3.53;;;3.07;;
17648;SDS011;8943;51.110;-4.158;2023-06-01T09:05:50;4.00;;;2.97;;
17648;SDS011;8943;51.110;-4.158;2023-06-01T09:08:29;3.70;;;3.10;;
17648;SDS011;8943;51.110;-4.158;2023-06-01T09:10:58;4.47;;;2.93;;
17648;SDS011;8943;51.110;-4.158;2023-06-01T09:13:32;3.07;;;2.77;;
17648;SDS011;8943;51.110;-4.158;2023-06-01T09:16:17;3.40;;;2.80;;
17648;SDS011;8943;51.110;-4.158;2023-06-01T09:18:50;3.83;;;2.93;;
17648;SDS011;8943;51.110;-4.158;2023-06-01T09:21:20;5.30;;;2.80;;
17648;SDS011;8943;51.110;-4.158;2023-06-01T09:23:50;3.80;;;2.43;;
17648;SDS011;8943;51.110;-4.158;2023-06-01T09:26:18;4.57;;;2.90;;
17648;SDS011;8943;51.110;-4.158;2023-06-01T09:28:55;3.93;;;2.73;;
17648;SDS011;8943;51.110;-4.158;2023-06-01T09:31:39;3.80;;;3.10;;
17648;SDS011;8943;51.110;-4.158;2023-06-01T09:34:10;4.40;;;2.73;;
17648;SDS011;8943;51.110;-4.158;2023-06-01T09:36:42;3.80;;;3.17;;
17648;SDS011;8943;51.110;-4.158;2023-06-01T09:39:12;3.37;;;3.07;;
17648;SDS011;8943;51.110;-4.158;2023-06-01T09:41:46;4.70;;;3.47;;
17648;SDS011;8943;51.110;-4.158;2023-06-01T09:44:23;4.77;;;3.10;;
17648;SDS011;8943;51.110;-4.158;2023-06-01T09:46:56;3.47;;;3.17;;
17648;SDS011;8943;51.110;-4.158;2023-06-01T09:49:26;3.73;;;3.33;;
17648;SDS011;8943;51.110;-4.158;2023-06-01T09:52:08;6.03;;;3.40;;
17648;SDS011;8943;51.110;-4.158;2023-06-01T09:54:43;7.03;;;3.00;;
17648;SDS011;8943;51.110;-4.158;2023-06-01T09:57:12;3.63;;;2.67;;
17648;SDS011;8943;51.110;-4.158;2023-06-01T09:59:49;3.30;;;3.00;;
17648;SDS011;8943;51.110;-4.158;2023-06-01T10:02:22;4.40;;;3.10;;
17648;SDS011;8943;51.110;-4.158;2023-06-01T10:04:54;4.60;;;3.40;;
17648;SDS011;8943;51.110;-4.158;2023-06-01T10:07:25;3.80;;;3.17;;
17648;SDS011;8943;51.110;-4.158;2023-06-01T10:09:58;4.57;;;3.73;;
17648;SDS011;8943;51.110;-4.158;2023-06-01T10:12:29;5.73;;;3.20;;
17648;SDS011;8943;51.110;-4.158;2023-06-01T10:15:00;4.83;;;3.00;;
17648;SDS011;8943;51.110;-4.158;2023-06-01T10:17:48;4.60;;;3.43;;
17648;SDS011;8943;51.110;-4.158;2023-06-01T10:20:19;6.03;;;3.93;;
17648;SDS011;8943;51.110;-4.158;2023-06-01T10:22:48;3.33;;;3.03;;
17648;SDS011;8943;51.110;-4.158;2023-06-01T10:25:18;6.33;;;3.23;;
17648;SDS011;8943;51.110;-4.158;2023-06-01T10:27:55;4.60;;;3.40;;
17648;SDS011;8943;51.110;-4.158;2023-06-01T10:30:27;5.57;;;3.30;;
17648;SDS011;8943;51.110;-4.158;2023-06-01T10:32:57;5.83;;;3.27;;
17648;SDS011;8943;51.110;-4.158;2023-06-01T10:38:22;6.07;;;3.53;;
17648;SDS011;8943;51.110;-4.158;2023-06-01T10:43:54;4.43;;;3.10;;
17648;SDS011;8943;51.110;-4.158;2023-06-01T10:46:42;4.43;;;3.83;;
17648;SDS011;8943;51.110;-4.158;2023-06-01T10:49:13;4.87;;;3.73;;
17648;SDS011;8943;51.110;-4.158;2023-06-01T10:51:42;15.97;;;4.20;;
17648;SDS011;8943;51.110;-4.158;2023-06-01T10:54:28;5.43;;;3.60;;
17648;SDS011;8943;51.110;-4.158;2023-06-01T11:02:54;6.13;;;3.60;;
17648;SDS011;8943;51.110;-4.158;2023-06-01T11:05:34;4.10;;;3.53;;
17648;SDS011;8943;51.110;-4.158;2023-06-01T11:08:04;4.33;;;3.20;;
17648;SDS011;8943;51.110;-4.158;2023-06-01T11:13:26;4.60;;;3.90;;
17648;SDS011;8943;51.110;-4.158;2023-06-01T11:18:57;7.03;;;3.40;;
17648;SDS011;8943;51.110;-4.158;2023-06-01T11:21:30;6.40;;;4.00;;
17648;SDS011;8943;51.110;-4.158;2023-06-01T11:24:06;5.37;;;3.83;;
17648;SDS011;8943;51.110;-4.158;2023-06-01T11:26:37;5.43;;;3.40;;
17648;SDS011;8943;51.110;-4.158;2023-06-01T11:29:11;5.80;;;3.77;;
17648;SDS011;8943;51.110;-4.158;2023-06-01T11:31:44;4.80;;;3.70;;
17648;SDS011;8943;51.110;-4.158;2023-06-01T11:34:14;8.17;;;4.77;;
17648;SDS011;8943;51.110;-4.158;2023-06-01T11:36:46;6.00;;;3.53;;
17648;SDS011;8943;51.110;-4.158;2023-06-01T11:39:17;6.47;;;4.00;;
17648;SDS011;8943;51.110;-4.158;2023-06-01T11:41:50;5.23;;;3.63;;
17648;SDS011;8943;51.110;-4.158;2023-06-01T11:44:20;5.37;;;3.57;;
17648;SDS011;8943;51.110;-4.158;2023-06-01T11:46:52;5.17;;;3.67;;
17648;SDS011;8943;51.110;-4.158;2023-06-01T11:49:23;7.17;;;3.97;;
17648;SDS011;8943;51.110;-4.158;2023-06-01T11:51:54;6.40;;;3.27;;
17648;SDS011;8943;51.110;-4.158;2023-06-01T11:54:25;5.43;;;3.63;;
17648;SDS011;8943;51.110;-4.158;2023-06-01T11:56:55;4.23;;;3.70;;
17648;SDS011;8943;51.110;-4.158;2023-06-01T11:59:25;7.13;;;4.20;;
17648;SDS011;8943;51.110;-4.158;2023-06-01T12:01:55;6.03;;;4.00;;
17648;SDS011;8943;51.110;-4.158;2023-06-01T12:04:23;6.13;;;4.20;;
17648;SDS011;8943;51.110;-4.158;2023-06-01T12:07:04;5.77;;;3.70;;
17648;SDS011;8943;51.110;-4.158;2023-06-01T12:09:34;8.27;;;4.47;;
17648;SDS011;8943;51.110;-4.158;2023-06-01T12:12:04;6.40;;;4.03;;
17648;SDS011;8943;51.110;-4.158;2023-06-01T12:14:34;10.20;;;4.53;;
17648;SDS011;8943;51.110;-4.158;2023-06-01T12:17:03;7.90;;;4.03;;
17648;SDS011;8943;51.110;-4.158;2023-06-01T12:19:32;9.63;;;4.17;;
17648;SDS011;8943;51.110;-4.158;2023-06-01T12:22:04;6.03;;;4.07;;
17648;SDS011;8943;51.110;-4.158;2023-06-01T12:24:33;5.00;;;3.90;;
17648;SDS011;8943;51.110;-4.158;2023-06-01T12:27:02;4.40;;;3.80;;
17648;SDS011;8943;51.110;-4.158;2023-06-01T12:29:42;7.43;;;3.90;;
17648;SDS011;8943;51.110;-4.158;2023-06-01T12:32:13;5.33;;;3.57;;
17648;SDS011;8943;51.110;-4.158;2023-06-01T12:35:01;7.20;;;3.87;;
17648;SDS011;8943;51.110;-4.158;2023-06-01T12:37:33;11.03;;;4.13;;
17648;SDS011;8943;51.110;-4.158;2023-06-01T12:40:02;6.47;;;4.20;;
17648;SDS011;8943;51.110;-4.158;2023-06-01T12:42:33;5.57;;;3.83;;
17648;SDS011;8943;51.110;-4.158;2023-06-01T12:45:02;5.20;;;3.40;;
17648;SDS011;8943;51.110;-4.158;2023-06-01T12:47:35;4.10;;;3.10;;
17648;SDS011;8943;51.110;-4.158;2023-06-01T12:50:05;5.80;;;3.50;;
17648;SDS011;8943;51.110;-4.158;2023-06-01T12:52:37;4.72;;;3.55;;
17648;SDS011;8943;51.110;-4.158;2023-06-01T12:55:06;4.60;;;3.30;;
17648;SDS011;8943;51.110;-4.158;2023-06-01T12:57:36;4.80;;;3.70;;
17648;SDS011;8943;51.110;-4.158;2023-06-01T13:00:05;5.60;;;3.85;;
17648;SDS011;8943;51.110;-4.158;2023-06-01T13:02:34;7.28;;;3.25;;
17648;SDS011;8943;51.110;-4.158;2023-06-01T13:05:04;5.57;;;3.50;;
17648;SDS011;8943;51.110;-4.158;2023-06-01T13:07:32;4.95;;;3.30;;
17648;SDS011;8943;51.110;-4.158;2023-06-01T13:10:03;4.78;;;3.25;;
17648;SDS011;8943;51.110;-4.158;2023-06-01T13:12:32;6.75;;;3.70;;
17648;SDS011;8943;51.110;-4.158;2023-06-01T13:15:01;7.10;;;3.65;;
17648;SDS011;8943;51.110;-4.158;2023-06-01T13:17:29;4.25;;;3.30;;
17648;SDS011;8943;51.110;-4.158;2023-06-01T13:19:59;4.05;;;3.22;;
17648;SDS011;8943;51.110;-4.158;2023-06-01T13:22:28;4.57;;;3.35;;
17648;SDS011;8943;51.110;-4.158;2023-06-01T13:24:56;5.88;;;3.20;;
17648;SDS011;8943;51.110;-4.158;2023-06-01T13:27:32;5.03;;;3.03;;
17648;SDS011;8943;51.110;-4.158;2023-06-01T13:30:02;3.85;;;3.20;;
17648;SDS011;8943;51.110;-4.158;2023-06-01T13:32:30;3.03;;;2.50;;
17648;SDS011;8943;51.110;-4.158;2023-06-01T13:34:59;4.50;;;3.15;;
17648;SDS011;8943;51.110;-4.158;2023-06-01T13:37:27;5.28;;;3.20;;
17648;SDS011;8943;51.110;-4.158;2023-06-01T13:39:56;4.20;;;2.70;;
17648;SDS011;8943;51.110;-4.158;2023-06-01T13:42:26;5.43;;;3.17;;
17648;SDS011;8943;51.110;-4.158;2023-06-01T13:44:56;4.90;;;3.13;;
17648;SDS011;8943;51.110;-4.158;2023-06-01T13:47:24;3.97;;;2.72;;
17648;SDS011;8943;51.110;-4.158;2023-06-01T13:49:53;5.97;;;2.40;;
17648;SDS011;8943;51.110;-4.158;2023-06-01T13:52:22;3.88;;;2.70;;
17648;SDS011;8943;51.110;-4.158;2023-06-01T13:54:52;5.47;;;2.83;;
17648;SDS011;8943;51.110;-4.158;2023-06-01T13:57:20;4.97;;;2.72;;
17648;SDS011;8943;51.110;-4.158;2023-06-01T13:59:50;2.97;;;2.50;;
17648;SDS011;8943;51.110;-4.158;2023-06-01T14:02:19;4.00;;;2.53;;
17648;SDS011;8943;51.110;-4.158;2023-06-01T14:04:49;2.50;;;2.30;;
17648;SDS011;8943;51.110;-4.158;2023-06-01T14:07:32;4.88;;;2.15;;
17648;SDS011;8943;51.110;-4.158;2023-06-01T14:10:01;2.90;;;2.00;;
17648;SDS011;8943;51.110;-4.158;2023-06-01T14:12:31;2.55;;;2.10;;
17648;SDS011;8943;51.110;-4.158;2023-06-01T14:15:18;3.83;;;2.03;;
17648;SDS011;8943;51.110;-4.158;2023-06-01T14:21:02;2.20;;;2.00;;
17648;SDS011;8943;51.110;-4.158;2023-06-01T14:23:35;4.22;;;2.00;;
17648;SDS011;8943;51.110;-4.158;2023-06-01T14:26:04;3.60;;;2.03;;
17648;SDS011;8943;51.110;-4.158;2023-06-01T14:28:33;5.93;;;2.08;;
17648;SDS011;8943;51.110;-4.158;2023-06-01T14:31:01;2.55;;;2.25;;
17648;SDS011;8943;51.110;-4.158;2023-06-01T14:33:31;3.58;;;1.98;;
17648;SDS011;8943;51.110;-4.158;2023-06-01T14:35:59;2.90;;;1.88;;
17648;SDS011;8943;51.110;-4.158;2023-06-01T14:38:29;3.92;;;2.20;;
17648;SDS011;8943;51.110;-4.158;2023-06-01T14:40:58;4.13;;;1.77;;
17648;SDS011;8943;51.110;-4.158;2023-06-01T14:43:27;2.72;;;2.17;;
17648;SDS011;8943;51.110;-4.158;2023-06-01T14:45:59;3.63;;;1.80;;
17648;SDS011;8943;51.110;-4.158;2023-06-01T14:48:28;2.47;;;1.73;;
17648;SDS011;8943;51.110;-4.158;2023-06-01T14:50:56;2.40;;;1.77;;
17648;SDS011;8943;51.110;-4.158;2023-06-01T14:53:25;2.75;;;1.95;;
17648;SDS011;8943;51.110;-4.158;2023-06-01T14:56:01;2.67;;;1.75;;
17648;SDS011;8943;51.110;-4.158;2023-06-01T14:58:30;3.00;;;2.05;;
17648;SDS011;8943;51.110;-4.158;2023-06-01T15:01:01;2.20;;;1.88;;
17648;SDS011;8943;51.110;-4.158;2023-06-01T15:03:30;3.67;;;1.70;;
17648;SDS011;8943;51.110;-4.158;2023-06-01T15:06:04;2.28;;;1.58;;
17648;SDS011;8943;51.110;-4.158;2023-06-01T15:08:33;3.25;;;1.90;;
17648;SDS011;8943;51.110;-4.158;2023-06-01T15:11:03;2.97;;;1.92;;
17648;SDS011;8943;51.110;-4.158;2023-06-01T15:13:32;5.22;;;1.60;;
17648;SDS011;8943;51.110;-4.158;2023-06-01T15:16:02;7.28;;;2.00;;
17648;SDS011;8943;51.110;-4.158;2023-06-01T15:18:34;3.13;;;1.45;;
17648;SDS011;8943;51.110;-4.158;2023-06-01T15:21:03;2.17;;;1.60;;
17648;SDS011;8943;51.110;-4.158;2023-06-01T15:27:04;2.55;;;1.60;;
17648;SDS011;8943;51.110;-4.158;2023-06-01T15:29:34;4.97;;;1.55;;
17648;SDS011;8943;51.110;-4.158;2023-06-01T15:32:03;2.28;;;1.45;;
17648;SDS011;8943;51.110;-4.158;2023-06-01T15:34:31;1.80;;;1.40;;
17648;SDS011;8943;51.110;-4.158;2023-06-01T15:37:00;4.97;;;1.60;;
17648;SDS011;8943;51.110;-4.158;2023-06-01T15:39:29;1.77;;;1.63;;
17648;SDS011;8943;51.110;-4.158;2023-06-01T15:41:59;2.47;;;1.70;;
17648;SDS011;8943;51.110;-4.158;2023-06-01T15:44:27;3.42;;;1.80;;
17648;SDS011;8943;51.110;-4.158;2023-06-01T15:46:57;1.75;;;1.60;;
17648;SDS011;8943;51.110;-4.158;2023-06-01T15:49:25;2.25;;;1.58;;
17648;SDS011;8943;51.110;-4.158;2023-06-01T15:51:54;3.75;;;1.48;;
17648;SDS011;8943;51.110;-4.158;2023-06-01T15:54:22;2.47;;;1.70;;
17648;SDS011;8943;51.110;-4.158;2023-06-01T15:56:50;2.83;;;1.40;;
17648;SDS011;8943;51.110;-4.158;2023-06-01T15:59:20;5.47;;;1.80;;
17648;SDS011;8943;51.110;-4.158;2023-06-01T16:01:54;3.70;;;1.75;;
17648;SDS011;8943;51.110;-4.158;2023-06-01T16:04:23;2.33;;;1.52;;
17648;SDS011;8943;51.110;-4.158;2023-06-01T16:06:51;2.22;;;1.50;;
17648;SDS011;8943;51.110;-4.158;2023-06-01T16:09:20;2.78;;;1.85;;
17648;SDS011;8943;51.110;-4.158;2023-06-01T16:11:48;2.15;;;1.85;;
17648;SDS011;8943;51.110;-4.158;2023-06-01T16:14:16;2.40;;;1.70;;
17648;SDS011;8943;51.110;-4.158;2023-06-01T16:16:46;3.53;;;1.83;;
17648;SDS011;8943;51.110;-4.158;2023-06-01T16:19:15;2.38;;;1.80;;
17648;SDS011;8943;51.110;-4.158;2023-06-01T16:21:44;2.15;;;1.70;;
17648;SDS011;8943;51.110;-4.158;2023-06-01T16:24:12;3.60;;;2.08;;
17648;SDS011;8943;51.110;-4.158;2023-06-01T16:26:41;2.67;;;1.80;;
17648;SDS011;8943;51.110;-4.158;2023-06-01T16:29:09;2.00;;;1.65;;
17648;SDS011;8943;51.110;-4.158;2023-06-01T16:31:38;2.13;;;1.70;;
17648;SDS011;8943;51.110;-4.158;2023-06-01T16:34:08;2.50;;;1.58;;
17648;SDS011;8943;51.110;-4.158;2023-06-01T16:36:36;2.15;;;1.70;;
17648;SDS011;8943;51.110;-4.158;2023-06-01T16:39:04;3.17;;;1.90;;
17648;SDS011;8943;51.110;-4.158;2023-06-01T16:41:33;4.68;;;1.98;;
17648;SDS011;8943;51.110;-4.158;2023-06-01T16:44:01;4.15;;;2.05;;
17648;SDS011;8943;51.110;-4.158;2023-06-01T16:46:29;3.03;;;1.90;;
17648;SDS011;8943;51.110;-4.158;2023-06-01T16:48:58;2.80;;;2.10;;
17648;SDS011;8943;51.110;-4.158;2023-06-01T16:51:27;4.07;;;1.95;;
17648;SDS011;8943;51.110;-4.158;2023-06-01T16:53:56;3.45;;;2.10;;
17648;SDS011;8943;51.110;-4.158;2023-06-01T16:56:24;2.53;;;1.90;;
17648;SDS011;8943;51.110;-4.158;2023-06-01T16:58:53;3.05;;;1.70;;
17648;SDS011;8943;51.110;-4.158;2023-06-01T17:01:22;2.42;;;2.00;;
17648;SDS011;8943;51.110;-4.158;2023-06-01T17:03:50;6.18;;;2.63;;
17648;SDS011;8943;51.110;-4.158;2023-06-01T17:06:18;4.88;;;2.45;;
17648;SDS011;8943;51.110;-4.158;2023-06-01T17:08:49;2.63;;;1.83;;
17648;SDS011;8943;51.110;-4.158;2023-06-01T17:11:17;6.00;;;2.00;;
17648;SDS011;8943;51.110;-4.158;2023-06-01T17:13:45;2.97;;;2.05;;
17648;SDS011;8943;51.110;-4.158;2023-06-01T17:16:16;3.00;;;2.10;;
17648;SDS011;8943;51.110;-4.158;2023-06-01T17:18:44;3.28;;;2.30;;
17648;SDS011;8943;51.110;-4.158;2023-06-01T17:21:13;9.02;;;2.83;;
17648;SDS011;8943;51.110;-4.158;2023-06-01T17:23:41;3.45;;;1.95;;
17648;SDS011;8943;51.110;-4.158;2023-06-01T17:26:10;3.13;;;2.20;;
17648;SDS011;8943;51.110;-4.158;2023-06-01T17:28:39;3.75;;;2.38;;
17648;SDS011;8943;51.110;-4.158;2023-06-01T17:31:08;3.78;;;2.30;;
17648;SDS011;8943;51.110;-4.158;2023-06-01T17:33:36;3.85;;;2.35;;
17648;SDS011;8943;51.110;-4.158;2023-06-01T17:36:05;3.92;;;2.20;;
17648;SDS011;8943;51.110;-4.158;2023-06-01T17:38:33;6.43;;;2.60;;
17648;SDS011;8943;51.110;-4.158;2023-06-01T17:41:02;3.35;;;2.63;;
17648;SDS011;8943;51.110;-4.158;2023-06-01T17:43:32;4.45;;;3.13;;
17648;SDS011;8943;51.110;-4.158;2023-06-01T17:46:00;4.53;;;3.00;;
17648;SDS011;8943;51.110;-4.158;2023-06-01T17:48:30;4.25;;;2.90;;
17648;SDS011;8943;51.110;-4.158;2023-06-01T17:50:58;3.20;;;2.50;;
17648;SDS011;8943;51.110;-4.158;2023-06-01T17:53:27;4.38;;;2.90;;
17648;SDS011;8943;51.110;-4.158;2023-06-01T17:56:06;2.63;;;2.28;;
17648;SDS011;8943;51.110;-4.158;2023-06-01T17:58:36;3.75;;;2.10;;
17648;SDS011;8943;51.110;-4.158;2023-06-01T18:01:05;3.30;;;2.53;;
17648;SDS011;8943;51.110;-4.158;2023-06-01T18:03:33;2.72;;;2.38;;
17648;SDS011;8943;51.110;-4.158;2023-06-01T18:06:01;3.20;;;2.20;;
17648;SDS011;8943;51.110;-4.158;2023-06-01T18:08:31;4.63;;;2.33;;
17648;SDS011;8943;51.110;-4.158;2023-06-01T18:10:59;7.10;;;2.80;;
17648;SDS011;8943;51.110;-4.158;2023-06-01T18:13:33;4.20;;;2.80;;
17648;SDS011;8943;51.110;-4.158;2023-06-01T18:16:02;4.35;;;2.40;;
17648;SDS011;8943;51.110;-4.158;2023-06-01T18:18:35;3.47;;;3.10;;